Time;durP1;ratioP1;P1;durP2;ratioP2;P2;SDS_P1;SDS_P2;PMS_P1;PMS_P2;Temp;Humidity;BMP_temperature;BMP_pressure;BME280_temperature;BME280_humidity;BME280_pressure;Samples;Min_cycle;Max_cycle;Signal;HPM_P1;HPM_P2
2021/09/05 00:01:56;;;;;;;3.03;2.50;;;22.90;55.20;;;;;;4926403;29;20411;-68
2021/09/05 00:04:23;;;;;;;3.38;2.60;;;22.90;55.30;;;;;;4927535;29;20455;-70
2021/09/05 00:06:49;;;;;;;3.20;2.58;;;22.90;55.30;;;;;;4927069;29;20403;-72
2021/09/05 00:09:15;;;;;;;3.53;2.60;;;22.90;55.20;;;;;;4927413;29;20397;-68
2021/09/05 00:11:41;;;;;;;3.47;2.67;;;22.90;55.30;;;;;;4927314;29;20772;-72
2021/09/05 00:14:07;;;;;;;3.35;2.60;;;22.90;55.30;;;;;;4927219;29;20408;-71
2021/09/05 00:16:32;;;;;;;3.08;2.53;;;22.80;55.20;;;;;;4927247;29;20423;-70
2021/09/05 00:18:58;;;;;;;3.13;2.67;;;22.90;55.30;;;;;;4925197;29;20859;-68
2021/09/05 00:21:26;;;;;;;3.65;2.65;;;22.80;55.10;;;;;;4926811;29;20456;-67
2021/09/05 00:23:52;;;;;;;2.97;2.53;;;22.80;55.30;;;;;;4924517;29;20422;-71
2021/09/05 00:26:18;;;;;;;3.35;2.63;;;22.80;55.20;;;;;;4927356;29;20431;-71
2021/09/05 00:28:44;;;;;;;3.67;2.42;;;22.80;55.20;;;;;;4926982;29;20412;-70
2021/09/05 00:31:09;;;;;;;3.07;2.50;;;22.80;55.20;;;;;;4941402;28;20915;-69
2021/09/05 00:33:35;;;;;;;3.35;2.90;;;22.80;55.20;;;;;;4927313;29;20435;-70
2021/09/05 00:36:01;;;;;;;3.33;2.47;;;22.80;55.10;;;;;;4926858;29;20392;-67
2021/09/05 00:38:27;;;;;;;3.20;2.35;;;22.80;55.10;;;;;;4927050;29;20407;-68
2021/09/05 00:40:53;;;;;;;3.10;2.40;;;22.80;55.20;;;;;;4926378;29;20490;-71
2021/09/05 00:43:18;;;;;;;3.35;2.40;;;22.80;55.20;;;;;;4926793;29;20411;-67
2021/09/05 00:45:44;;;;;;;2.78;2.25;;;22.80;55.10;;;;;;4926600;29;20479;-71
2021/09/05 00:48:10;;;;;;;3.30;2.47;;;22.80;55.10;;;;;;4926503;29;20768;-71
2021/09/05 00:50:36;;;;;;;3.35;2.60;;;22.80;55.20;;;;;;4926962;29;20396;-72
2021/09/05 00:53:04;;;;;;;2.70;2.28;;;22.80;55.20;;;;;;4925998;29;20423;-71
2021/09/05 00:55:34;;;;;;;3.08;2.50;;;22.70;55.00;;;;;;4924365;29;20962;-70
2021/09/05 00:58:00;;;;;;;3.05;2.58;;;22.70;55.10;;;;;;4925332;29;20447;-67
2021/09/05 01:00:25;;;;;;;3.20;2.73;;;22.80;55.00;;;;;;4919249;29;20475;-71
2021/09/05 01:02:51;;;;;;;3.45;2.50;;;22.70;55.00;;;;;;4926066;29;20467;-70
2021/09/05 01:05:17;;;;;;;3.60;2.65;;;22.70;55.10;;;;;;4926412;29;20888;-68
2021/09/05 01:07:43;;;;;;;3.15;2.47;;;22.70;55.10;;;;;;4926062;29;20391;-69
2021/09/05 01:10:11;;;;;;;2.88;2.42;;;22.70;55.10;;;;;;4926247;29;20408;-71
2021/09/05 01:12:37;;;;;;;3.20;2.50;;;22.70;55.10;;;;;;4926518;29;20434;-70
2021/09/05 01:15:04;;;;;;;3.10;2.63;;;22.70;54.90;;;;;;4925142;29;20905;-70
2021/09/05 01:17:36;;;;;;;3.17;2.50;;;22.70;55.00;;;;;;4925763;29;20435;-70
2021/09/05 01:20:09;;;;;;;3.08;2.40;;;22.70;54.80;;;;;;4926542;29;20435;-69
2021/09/05 01:22:35;;;;;;;3.47;2.50;;;22.70;55.00;;;;;;4926401;29;20411;-68
2021/09/05 01:25:03;;;;;;;3.10;2.63;;;22.70;55.00;;;;;;4925784;29;20936;-67
2021/09/05 01:27:28;;;;;;;3.00;2.42;;;22.70;54.80;;;;;;4926265;29;20411;-70
2021/09/05 01:29:54;;;;;;;3.20;2.60;;;22.70;54.90;;;;;;4925833;29;20400;-69
2021/09/05 01:32:20;;;;;;;2.97;2.50;;;22.70;54.80;;;;;;4925811;29;21217;-70
2021/09/05 01:34:45;;;;;;;3.15;2.70;;;22.70;54.60;;;;;;4924586;29;20395;-68
2021/09/05 01:37:11;;;;;;;3.27;2.63;;;22.70;54.50;;;;;;4925341;29;20411;-66
2021/09/05 01:39:37;;;;;;;3.40;2.50;;;22.60;54.60;;;;;;4926216;29;20404;-70
2021/09/05 01:42:03;;;;;;;2.83;2.43;;;22.60;54.60;;;;;;4918197;29;20406;-70
2021/09/05 01:44:28;;;;;;;3.05;2.53;;;22.60;54.60;;;;;;4926010;29;20428;-70
2021/09/05 01:46:54;;;;;;;3.08;2.53;;;22.60;54.50;;;;;;4924918;29;20478;-70
2021/09/05 01:49:20;;;;;;;3.28;2.55;;;22.60;54.40;;;;;;4926365;29;20410;-71
2021/09/05 01:51:46;;;;;;;3.35;2.67;;;22.60;54.50;;;;;;4925439;29;20427;-71
2021/09/05 01:54:12;;;;;;;2.70;2.15;;;22.60;54.60;;;;;;4924677;29;20410;-71
2021/09/05 01:56:38;;;;;;;3.20;2.30;;;22.60;54.40;;;;;;4924149;29;20412;-70
2021/09/05 01:59:05;;;;;;;3.28;2.38;;;22.60;54.40;;;;;;4925135;29;20872;-70
2021/09/05 02:01:32;;;;;;;3.00;2.30;;;22.60;54.40;;;;;;4925439;29;21195;-70
2021/09/05 02:03:58;;;;;;;3.28;2.28;;;22.60;54.70;;;;;;4925230;29;20400;-67
2021/09/05 02:06:26;;;;;;;3.20;2.50;;;22.60;54.40;;;;;;4925446;29;20817;-68
2021/09/05 02:08:52;;;;;;;2.65;2.17;;;22.60;54.40;;;;;;4925008;29;20438;-69
2021/09/05 02:11:17;;;;;;;2.80;2.30;;;22.60;54.40;;;;;;4925244;29;20506;-71
2021/09/05 02:13:43;;;;;;;3.28;2.40;;;22.60;54.40;;;;;;4925207;29;20803;-68
2021/09/05 02:16:09;;;;;;;3.00;2.20;;;22.60;54.30;;;;;;4924562;29;20399;-70
2021/09/05 02:18:36;;;;;;;3.20;2.50;;;22.50;54.10;;;;;;4924988;29;20415;-70
2021/09/05 02:21:02;;;;;;;3.75;2.50;;;22.60;54.30;;;;;;4927306;29;20402;-71
2021/09/05 02:23:28;;;;;;;3.30;2.50;;;22.60;54.40;;;;;;4927196;29;20417;-69
2021/09/05 02:25:53;;;;;;;4.00;2.30;;;22.50;54.70;;;;;;4925439;29;20801;-72
2021/09/05 02:28:19;;;;;;;4.07;2.40;;;22.60;55.10;;;;;;4925197;29;20395;-71
2021/09/05 02:30:45;;;;;;;2.97;2.20;;;22.60;54.60;;;;;;4925405;29;20456;-70
2021/09/05 02:33:10;;;;;;;2.67;2.10;;;22.50;54.80;;;;;;4924471;29;21249;-68
2021/09/05 02:35:36;;;;;;;2.63;2.30;;;22.60;54.80;;;;;;4925360;29;20396;-67
2021/09/05 02:38:02;;;;;;;2.72;2.13;;;22.50;54.80;;;;;;4924911;29;20404;-69
2021/09/05 02:40:28;;;;;;;3.67;2.50;;;22.50;54.80;;;;;;4925605;29;20399;-68
2021/09/05 02:42:53;;;;;;;3.22;2.22;;;22.50;54.70;;;;;;4924263;29;20407;-68
2021/09/05 02:45:19;;;;;;;3.30;2.40;;;22.50;54.80;;;;;;4939735;29;20402;-69
2021/09/05 02:47:45;;;;;;;3.10;2.30;;;22.50;54.90;;;;;;4924428;29;20434;-68
2021/09/05 02:50:10;;;;;;;3.33;2.40;;;22.50;55.00;;;;;;4923851;29;20825;-69
2021/09/05 02:52:36;;;;;;;3.15;2.60;;;22.50;55.00;;;;;;4923960;29;20435;-70
2021/09/05 02:55:02;;;;;;;3.27;2.30;;;22.50;54.50;;;;;;4924796;29;20899;-70
2021/09/05 02:57:28;;;;;;;2.97;2.30;;;22.50;54.80;;;;;;4925169;29;20411;-70
2021/09/05 02:59:53;;;;;;;2.80;2.13;;;22.50;54.60;;;;;;4924940;29;20410;-68
2021/09/05 03:02:19;;;;;;;2.57;2.20;;;22.50;54.80;;;;;;4939516;29;20410;-68
2021/09/05 03:04:45;;;;;;;3.67;2.13;;;22.50;54.80;;;;;;4924953;29;20387;-71
2021/09/05 03:07:10;;;;;;;3.13;2.13;;;22.50;55.00;;;;;;4924974;29;20442;-69
2021/09/05 03:09:37;;;;;;;2.72;2.25;;;22.50;55.10;;;;;;4925489;29;20800;-69
2021/09/05 03:12:04;;;;;;;3.20;2.10;;;22.50;55.10;;;;;;4924670;29;20427;-70
2021/09/05 03:14:29;;;;;;;2.58;2.22;;;22.50;55.10;;;;;;4925218;29;20399;-69
2021/09/05 03:16:55;;;;;;;2.90;2.30;;;22.50;55.80;;;;;;4924316;29;20474;-67
2021/09/05 03:19:21;;;;;;;3.10;2.20;;;22.50;55.50;;;;;;4925063;29;20399;-70
2021/09/05 03:21:46;;;;;;;2.67;2.10;;;22.50;55.80;;;;;;4924160;29;20388;-70
2021/09/05 03:24:12;;;;;;;3.00;2.45;;;22.50;55.10;;;;;;4926354;29;20409;-71
2021/09/05 03:26:39;;;;;;;5.10;2.60;;;22.50;55.10;;;;;;4923423;29;20746;-70
2021/09/05 03:29:05;;;;;;;3.63;2.30;;;22.50;56.50;;;;;;4924342;29;21079;-68
2021/09/05 03:31:30;;;;;;;3.10;2.38;;;22.60;56.60;;;;;;4925050;29;20430;-72
2021/09/05 03:33:56;;;;;;;4.80;2.30;;;22.60;56.30;;;;;;4924243;29;20408;-71
2021/09/05 03:36:22;;;;;;;4.75;2.50;;;22.60;57.30;;;;;;4924879;29;20399;-70
2021/09/05 03:38:47;;;;;;;4.10;2.30;;;22.70;57.50;;;;;;4939023;29;20760;-70
2021/09/05 03:41:13;;;;;;;4.53;2.38;;;22.60;55.60;;;;;;4924237;29;20994;-70
2021/09/05 03:43:39;;;;;;;3.23;2.53;;;22.60;58.00;;;;;;4924028;29;20407;-70
2021/09/05 03:46:05;;;;;;;3.97;2.55;;;22.70;58.20;;;;;;4924178;29;20756;-70
2021/09/05 03:48:32;;;;;;;3.83;2.30;;;22.70;57.60;;;;;;4924872;29;20757;-67
2021/09/05 03:50:58;;;;;;;4.07;2.60;;;22.70;57.40;;;;;;4924569;29;20395;-69
2021/09/05 03:53:23;;;;;;;5.03;2.30;;;22.70;57.30;;;;;;4924608;29;20946;-70
2021/09/05 03:55:49;;;;;;;4.57;2.40;;;22.80;57.00;;;;;;4913679;29;20773;-71
2021/09/05 03:58:15;;;;;;;3.70;2.50;;;22.70;55.50;;;;;;4929275;29;21341;-71
2021/09/05 04:00:41;;;;;;;4.80;2.67;;;22.70;55.80;;;;;;4928234;29;20777;-71
2021/09/05 04:03:07;;;;;;;7.13;2.53;;;22.60;56.60;;;;;;4927488;29;20904;-70
2021/09/05 04:05:32;;;;;;;6.90;2.60;;;22.70;56.00;;;;;;4926604;29;20403;-70
2021/09/05 04:10:27;;;;;;;5.47;2.97;;;22.70;55.60;;;;;;4928077;29;20410;-68
2021/09/05 04:12:54;;;;;;;4.65;2.90;;;22.70;55.50;;;;;;4927563;29;20442;-71
2021/09/05 04:15:19;;;;;;;5.72;2.75;;;22.70;55.10;;;;;;4927200;29;20399;-67
2021/09/05 04:17:45;;;;;;;4.68;2.90;;;22.70;54.50;;;;;;4927597;29;20483;-70
2021/09/05 04:20:11;;;;;;;4.77;2.60;;;22.70;54.20;;;;;;4927665;29;20811;-70
2021/09/05 04:22:37;;;;;;;4.70;2.95;;;22.70;53.70;;;;;;4927428;29;20744;-70
2021/09/05 04:25:04;;;;;;;4.28;2.70;;;22.60;53.70;;;;;;4927089;29;20400;-71
2021/09/05 04:27:29;;;;;;;3.80;2.80;;;22.60;53.50;;;;;;4927764;29;20399;-67
2021/09/05 04:29:55;;;;;;;4.70;2.50;;;22.60;53.80;;;;;;4928194;29;20467;-70
2021/09/05 04:32:21;;;;;;;5.40;2.55;;;22.60;53.40;;;;;;4927997;29;20454;-69
2021/09/05 04:34:50;;;;;;;4.67;2.50;;;22.60;52.90;;;;;;4927480;29;20403;-70
2021/09/05 04:37:17;;;;;;;7.10;2.50;;;22.60;52.80;;;;;;4927021;29;20411;-72
2021/09/05 04:39:43;;;;;;;6.78;2.38;;;22.60;53.60;;;;;;4925660;29;20403;-69
2021/09/05 04:42:09;;;;;;;7.33;2.30;;;22.60;53.50;;;;;;4927262;29;20406;-71
2021/09/05 04:44:34;;;;;;;8.05;2.60;;;22.60;53.90;;;;;;4927245;29;20403;-68
2021/09/05 04:47:02;;;;;;;7.25;2.78;;;22.60;53.50;;;;;;4925581;29;20749;-68
2021/09/05 04:49:27;;;;;;;7.85;2.42;;;22.60;53.10;;;;;;4931963;29;20875;-70
2021/09/05 04:51:53;;;;;;;6.43;2.63;;;22.50;53.30;;;;;;4927037;29;20442;-67
2021/09/05 04:54:19;;;;;;;6.97;2.70;;;22.50;53.40;;;;;;4927237;29;20435;-71
2021/09/05 04:56:45;;;;;;;3.90;2.40;;;22.50;52.90;;;;;;4927017;29;20425;-71
2021/09/05 04:59:10;;;;;;;5.40;2.60;;;22.50;52.80;;;;;;4917784;29;20411;-71
2021/09/05 05:01:36;;;;;;;7.63;2.20;;;22.50;52.80;;;;;;4926950;29;20427;-68
2021/09/05 05:04:02;;;;;;;6.37;2.60;;;22.50;52.70;;;;;;4927045;29;20846;-68
2021/09/05 05:06:27;;;;;;;4.22;2.20;;;22.50;52.60;;;;;;4926683;29;20450;-71
2021/09/05 05:08:53;;;;;;;6.83;2.43;;;22.40;52.70;;;;;;4941428;29;20474;-71
2021/09/05 05:11:19;;;;;;;3.10;2.10;;;22.50;53.10;;;;;;4926033;29;20406;-70
2021/09/05 05:13:45;;;;;;;4.68;2.40;;;22.50;52.80;;;;;;4941338;29;20502;-70
2021/09/05 05:16:10;;;;;;;3.77;2.23;;;22.40;52.80;;;;;;4926592;29;20752;-70
2021/09/05 05:18:36;;;;;;;3.78;2.30;;;22.40;52.90;;;;;;4926216;29;20542;-68
2021/09/05 05:21:02;;;;;;;4.93;2.50;;;22.40;52.90;;;;;;4926361;29;20907;-70
2021/09/05 05:23:29;;;;;;;2.97;2.40;;;22.40;52.80;;;;;;4941175;29;20415;-71
2021/09/05 05:25:55;;;;;;;3.67;2.22;;;22.40;52.90;;;;;;4919116;29;20920;-67
2021/09/05 05:28:21;;;;;;;3.80;2.40;;;22.40;52.90;;;;;;4926378;29;20411;-70
2021/09/05 05:30:46;;;;;;;5.10;2.28;;;22.40;52.90;;;;;;4914089;29;20410;-69
2021/09/05 05:33:12;;;;;;;2.93;1.97;;;22.40;52.90;;;;;;4925610;29;20924;-68
2021/09/05 05:35:38;;;;;;;4.88;2.00;;;22.40;53.00;;;;;;4940828;29;20769;-70
2021/09/05 05:38:04;;;;;;;4.27;2.40;;;22.40;53.00;;;;;;4926333;29;20852;-73
2021/09/05 05:40:33;;;;;;;4.70;2.10;;;22.40;53.60;;;;;;4926194;29;20555;-71
2021/09/05 05:43:00;;;;;;;3.67;2.42;;;22.40;53.10;;;;;;4926050;29;20967;-67
2021/09/05 05:45:26;;;;;;;2.97;2.20;;;22.40;53.10;;;;;;4925986;29;20472;-71
2021/09/05 05:47:51;;;;;;;2.50;2.00;;;22.30;53.10;;;;;;4926142;29;20399;-70
2021/09/05 05:50:17;;;;;;;3.17;2.10;;;22.30;53.10;;;;;;4926119;29;20391;-70
2021/09/05 05:52:43;;;;;;;3.15;2.22;;;22.30;53.10;;;;;;4925755;29;20427;-68
2021/09/05 05:55:09;;;;;;;2.80;2.10;;;22.30;53.20;;;;;;4925606;29;20534;-66
2021/09/05 05:57:34;;;;;;;2.88;2.22;;;22.30;53.20;;;;;;4925833;29;20451;-69
2021/09/05 06:00:00;;;;;;;2.72;2.13;;;22.30;53.20;;;;;;4925893;29;20488;-68
2021/09/05 06:02:26;;;;;;;3.43;2.17;;;22.30;53.20;;;;;;4916081;29;20960;-69
2021/09/05 06:04:51;;;;;;;3.38;2.30;;;22.30;53.30;;;;;;4925705;29;20469;-70
2021/09/05 06:07:17;;;;;;;2.77;2.23;;;22.30;53.30;;;;;;4925439;29;20817;-71
2021/09/05 06:09:43;;;;;;;3.35;2.20;;;22.30;53.40;;;;;;4924300;29;20922;-70
2021/09/05 06:12:09;;;;;;;2.88;2.00;;;22.30;53.40;;;;;;4925814;29;20420;-70
2021/09/05 06:14:35;;;;;;;2.70;2.03;;;22.30;53.40;;;;;;4925640;29;20419;-68
2021/09/05 06:17:01;;;;;;;3.17;2.10;;;22.30;53.40;;;;;;4925477;29;20419;-67
2021/09/05 06:19:26;;;;;;;4.35;2.20;;;22.30;53.50;;;;;;4925283;29;20499;-71
2021/09/05 06:21:52;;;;;;;3.37;2.20;;;22.30;53.60;;;;;;4924701;29;20404;-70
2021/09/05 06:24:18;;;;;;;2.60;1.92;;;22.30;53.70;;;;;;4925755;29;20752;-71
2021/09/05 06:26:43;;;;;;;2.63;2.00;;;22.30;53.70;;;;;;4925553;29;20593;-68
2021/09/05 06:29:09;;;;;;;3.10;2.10;;;22.30;53.70;;;;;;4925192;29;20403;-71
2021/09/05 06:31:35;;;;;;;2.80;2.13;;;22.30;53.80;;;;;;4925346;29;20415;-70
2021/09/05 06:34:01;;;;;;;2.50;2.05;;;22.30;53.80;;;;;;4925458;29;20462;-69
2021/09/05 06:36:27;;;;;;;2.70;1.90;;;22.30;53.80;;;;;;4925421;29;20384;-70
2021/09/05 06:38:53;;;;;;;2.70;2.20;;;22.30;53.90;;;;;;4925473;29;20408;-69
2021/09/05 06:41:18;;;;;;;4.72;2.50;;;22.30;53.90;;;;;;4924633;29;20394;-68
2021/09/05 06:43:44;;;;;;;8.10;3.33;;;22.30;54.10;;;;;;4925283;29;20924;-68
2021/09/05 06:46:10;;;;;;;7.45;3.47;;;22.20;54.60;;;;;;4925311;29;20451;-69
2021/09/05 06:48:35;;;;;;;6.65;3.30;;;22.20;55.20;;;;;;4911472;29;20422;-68
2021/09/05 06:51:01;;;;;;;5.28;3.83;;;22.20;55.40;;;;;;4925394;29;20400;-68
2021/09/05 06:53:26;;;;;;;5.50;3.40;;;22.30;55.50;;;;;;4924591;29;21005;-67
2021/09/05 06:55:52;;;;;;;4.82;3.47;;;22.30;56.50;;;;;;4941111;29;20413;-70
2021/09/05 06:58:18;;;;;;;8.07;3.97;;;22.30;56.40;;;;;;4924479;29;21113;-69
2021/09/05 07:00:43;;;;;;;5.72;3.20;;;22.40;56.60;;;;;;4925199;29;20391;-71
2021/09/05 07:03:09;;;;;;;6.63;3.20;;;22.50;57.10;;;;;;4924426;29;20411;-70
2021/09/05 07:05:35;;;;;;;7.03;3.10;;;22.60;57.10;;;;;;4925117;29;20904;-69
2021/09/05 07:08:00;;;;;;;6.00;3.03;;;22.60;56.90;;;;;;4925171;29;20403;-69
2021/09/05 07:10:26;;;;;;;6.10;3.20;;;22.70;57.20;;;;;;4925202;29;20400;-69
2021/09/05 07:12:52;;;;;;;3.90;2.90;;;22.70;57.30;;;;;;4924794;29;20648;-71
2021/09/05 07:15:18;;;;;;;6.97;2.90;;;22.70;57.40;;;;;;4923147;29;20406;-68
2021/09/05 07:17:44;;;;;;;6.13;2.92;;;22.70;57.30;;;;;;4925647;29;20784;-68
2021/09/05 07:20:10;;;;;;;3.70;3.07;;;22.80;57.30;;;;;;4925036;29;20410;-68
2021/09/05 07:22:36;;;;;;;7.57;2.80;;;22.80;57.50;;;;;;4924958;29;20403;-69
2021/09/05 07:25:02;;;;;;;4.27;2.90;;;22.80;58.30;;;;;;4924832;29;20793;-69
2021/09/05 07:27:31;;;;;;;6.07;2.90;;;22.90;57.60;;;;;;4924999;29;20474;-68
2021/09/05 07:29:57;;;;;;;4.20;2.60;;;22.90;57.50;;;;;;4924561;29;20388;-68
2021/09/05 07:32:22;;;;;;;5.65;3.13;;;22.90;57.50;;;;;;4924882;29;20458;-68
2021/09/05 07:34:48;;;;;;;4.70;2.70;;;22.90;57.60;;;;;;4942983;29;20454;-68
2021/09/05 07:37:14;;;;;;;3.70;3.00;;;22.90;57.70;;;;;;4942049;29;20458;-69
2021/09/05 07:39:41;;;;;;;5.22;3.47;;;22.90;57.40;;;;;;4928444;29;20891;-66
2021/09/05 07:42:07;;;;;;;5.85;3.67;;;22.90;57.40;;;;;;4928412;29;20422;-69
2021/09/05 07:44:32;;;;;;;6.95;3.55;;;22.90;57.30;;;;;;4928178;29;20393;-66
2021/09/05 07:46:59;;;;;;;4.87;3.10;;;22.90;57.50;;;;;;4919984;28;20481;-72
2021/09/05 07:49:25;;;;;;;4.65;3.05;;;22.90;57.30;;;;;;4927900;29;20399;-69
2021/09/05 07:51:51;;;;;;;4.00;3.20;;;23.00;57.30;;;;;;4926771;29;20458;-72
2021/09/05 07:54:16;;;;;;;4.20;3.00;;;23.00;57.20;;;;;;4928685;29;20486;-68
2021/09/05 07:56:42;;;;;;;4.57;3.38;;;23.00;57.20;;;;;;4926822;29;20511;-66
2021/09/05 07:59:08;;;;;;;4.57;3.10;;;23.10;57.30;;;;;;4928291;29;20487;-67
2021/09/05 08:01:33;;;;;;;5.35;2.75;;;23.10;57.50;;;;;;4926413;29;20462;-72
2021/09/05 08:03:59;;;;;;;4.20;2.80;;;23.00;57.30;;;;;;4928287;29;20503;-72
2021/09/05 08:06:26;;;;;;;4.65;3.17;;;23.10;57.50;;;;;;4927967;29;20494;-70
2021/09/05 08:08:52;;;;;;;5.15;3.05;;;23.00;57.20;;;;;;4928224;29;20391;-70
2021/09/05 08:11:17;;;;;;;3.63;2.90;;;23.10;57.40;;;;;;4927212;29;20399;-67
2021/09/05 08:13:43;;;;;;;5.10;3.03;;;23.10;57.40;;;;;;4926639;29;20856;-69
2021/09/05 08:16:09;;;;;;;4.03;2.80;;;23.10;57.50;;;;;;4927496;29;20395;-68
2021/09/05 08:18:37;;;;;;;3.83;2.83;;;23.10;57.40;;;;;;4926594;29;20419;-67
2021/09/05 08:21:04;;;;;;;3.20;2.78;;;23.10;57.50;;;;;;4942503;28;20395;-69
2021/09/05 08:23:30;;;;;;;4.75;3.00;;;23.10;57.30;;;;;;4925395;29;20416;-70
2021/09/05 08:25:56;;;;;;;3.97;2.90;;;23.10;57.20;;;;;;4927537;29;20406;-69
2021/09/05 08:28:22;;;;;;;6.18;2.65;;;23.10;57.50;;;;;;4927920;29;20443;-68
2021/09/05 08:30:48;;;;;;;4.93;2.77;;;23.20;57.90;;;;;;4927281;29;20411;-70
2021/09/05 08:33:17;;;;;;;6.07;2.83;;;23.30;57.60;;;;;;4927056;29;20485;-69
2021/09/05 08:35:44;;;;;;;4.70;2.50;;;23.30;57.80;;;;;;4927355;29;20427;-70
2021/09/05 08:38:10;;;;;;;5.05;2.72;;;23.30;57.30;;;;;;4927116;29;20412;-67
2021/09/05 08:40:47;;;;;;;4.35;2.72;;;23.30;57.10;;;;;;4942100;29;20415;-70
2021/09/05 08:43:13;;;;;;;8.75;2.85;;;23.20;56.90;;;;;;4926980;29;20494;-69
2021/09/05 08:45:40;;;;;;;4.32;2.60;;;23.20;56.90;;;;;;4926362;29;20407;-70
2021/09/05 08:48:08;;;;;;;5.45;3.05;;;23.20;56.90;;;;;;4927336;29;21483;-67
2021/09/05 08:50:34;;;;;;;12.02;3.70;;;23.20;56.70;;;;;;4927539;29;20431;-67
2021/09/05 08:53:01;;;;;;;5.93;3.78;;;23.20;56.50;;;;;;4926946;29;20435;-68
2021/09/05 08:55:28;;;;;;;8.10;3.60;;;23.10;56.20;;;;;;4926375;29;20407;-67
2021/09/05 08:57:54;;;;;;;5.10;3.43;;;23.10;55.90;;;;;;4927140;29;20532;-68
2021/09/05 09:00:20;;;;;;;6.95;3.63;;;23.10;56.30;;;;;;4926833;29;20952;-68
2021/09/05 09:02:48;;;;;;;5.32;3.67;;;23.10;56.20;;;;;;4917886;29;20395;-68
2021/09/05 09:05:15;;;;;;;6.75;3.78;;;23.10;56.20;;;;;;4926860;29;20392;-68
2021/09/05 09:07:45;;;;;;;4.40;3.40;;;23.10;56.20;;;;;;4926621;29;20580;-68
2021/09/05 09:10:12;;;;;;;6.13;3.63;;;23.10;55.90;;;;;;4926941;29;20394;-68
2021/09/05 09:12:41;;;;;;;5.57;3.75;;;23.10;56.10;;;;;;4926701;29;20427;-67
2021/09/05 09:15:25;;;;;;;6.03;3.92;;;23.10;56.20;;;;;;4926866;29;20455;-68
2021/09/05 09:17:59;;;;;;;7.43;3.65;;;23.10;56.30;;;;;;4926374;29;20423;-67
2021/09/05 09:20:40;;;;;;;7.60;3.85;;;23.10;56.00;;;;;;4926591;29;20395;-69
2021/09/05 09:23:15;;;;;;;5.32;3.67;;;23.10;56.20;;;;;;4925112;29;20408;-67
2021/09/05 09:25:54;;;;;;;5.32;3.78;;;23.10;56.10;;;;;;4926492;29;20873;-68
2021/09/05 09:28:25;;;;;;;7.13;3.85;;;23.10;55.70;;;;;;4926088;29;20407;-69
2021/09/05 09:30:51;;;;;;;10.90;4.00;;;23.00;55.50;;;;;;4926256;29;20399;-68
2021/09/05 09:33:24;;;;;;;7.35;4.15;;;23.00;55.60;;;;;;4924387;29;20495;-66
2021/09/05 09:35:52;;;;;;;6.50;3.63;;;23.00;55.40;;;;;;4926105;29;20450;-69
2021/09/05 09:38:19;;;;;;;5.55;3.40;;;23.00;55.60;;;;;;4926175;29;20428;-68
2021/09/05 09:40:46;;;;;;;5.47;3.78;;;23.00;55.60;;;;;;4926350;29;20406;-69
2021/09/05 09:43:22;;;;;;;7.80;3.83;;;23.00;55.60;;;;;;4926361;29;20399;-69
2021/09/05 09:45:50;;;;;;;6.70;3.83;;;23.00;55.70;;;;;;4926000;29;20392;-68
2021/09/05 09:48:26;;;;;;;5.88;4.00;;;23.00;55.50;;;;;;4926111;29;20431;-70
2021/09/05 09:51:00;;;;;;;4.57;3.70;;;23.00;55.60;;;;;;4926514;29;20494;-71
2021/09/05 09:53:27;;;;;;;7.07;4.10;;;23.00;55.50;;;;;;4925290;29;20428;-69
2021/09/05 09:55:53;;;;;;;7.10;4.10;;;23.00;55.30;;;;;;4926151;29;20387;-69
2021/09/05 09:58:19;;;;;;;4.70;3.83;;;23.00;55.60;;;;;;4925877;29;20388;-68
2021/09/05 10:00:44;;;;;;;7.23;4.07;;;23.00;55.40;;;;;;4926105;29;20893;-68
2021/09/05 10:03:11;;;;;;;5.88;3.70;;;23.00;55.70;;;;;;4925903;29;20437;-68
2021/09/05 10:05:39;;;;;;;7.47;4.07;;;23.00;55.30;;;;;;4925407;29;20470;-66
2021/09/05 10:08:07;;;;;;;5.45;3.95;;;23.00;55.90;;;;;;4914760;29;20475;-70
2021/09/05 10:10:33;;;;;;;7.43;3.67;;;23.00;55.50;;;;;;4925944;29;20455;-71
2021/09/05 10:13:02;;;;;;;7.18;4.03;;;23.00;55.30;;;;;;4925581;29;20474;-70
2021/09/05 10:15:28;;;;;;;5.15;3.60;;;23.00;55.20;;;;;;4925316;29;20392;-70
2021/09/05 10:17:55;;;;;;;5.80;4.10;;;23.00;55.30;;;;;;4925732;29;20927;-71
2021/09/05 10:20:23;;;;;;;5.63;3.95;;;23.00;55.40;;;;;;4925576;29;20471;-70
2021/09/05 10:22:50;;;;;;;5.97;4.00;;;23.00;55.30;;;;;;4925113;29;20403;-66
2021/09/05 10:25:17;;;;;;;6.07;4.10;;;23.00;55.40;;;;;;4925446;29;20395;-67
2021/09/05 10:27:53;;;;;;;6.22;4.10;;;23.00;55.60;;;;;;4925196;29;20404;-70
2021/09/05 10:30:23;;;;;;;4.85;3.88;;;23.00;55.40;;;;;;4925408;29;20807;-70
2021/09/05 10:32:57;;;;;;;5.70;4.38;;;23.00;55.40;;;;;;4917303;29;20431;-67
2021/09/05 10:35:26;;;;;;;6.45;3.90;;;23.00;55.70;;;;;;4925102;29;20423;-70
2021/09/05 10:40:56;;;;;;;6.82;4.00;;;23.00;55.90;;;;;;4925445;29;20408;-68
2021/09/05 10:43:24;;;;;;;6.28;4.10;;;23.00;55.90;;;;;;4924998;29;20816;-67
2021/09/05 10:45:55;;;;;;;6.10;4.07;;;23.00;55.90;;;;;;4940065;29;20395;-70
2021/09/05 10:48:37;;;;;;;5.43;3.70;;;23.00;55.90;;;;;;4925483;29;20404;-71
2021/09/05 10:51:15;;;;;;;6.80;3.78;;;23.00;56.00;;;;;;4923513;29;20443;-70
2021/09/05 10:53:53;;;;;;;7.30;3.83;;;23.00;56.20;;;;;;4924975;29;20697;-72
2021/09/05 10:56:29;;;;;;;5.63;4.00;;;23.00;56.20;;;;;;4939932;29;20472;-72
2021/09/05 10:59:08;;;;;;;6.55;3.70;;;23.00;56.20;;;;;;4925103;29;21017;-73
2021/09/05 11:01:54;;;;;;;7.60;3.73;;;23.10;57.10;;;;;;4923184;29;20458;-70
2021/09/05 11:04:26;;;;;;;9.70;3.53;;;23.30;56.50;;;;;;4930252;29;20483;-72
2021/09/05 11:07:03;;;;;;;6.13;3.20;;;23.30;56.30;;;;;;4924823;29;20458;-69
2021/09/05 11:09:28;;;;;;;4.47;3.78;;;23.30;56.20;;;;;;4928630;29;20446;-71
2021/09/05 11:11:58;;;;;;;4.78;3.72;;;23.20;56.20;;;;;;4928753;29;20415;-70
2021/09/05 11:14:40;;;;;;;5.90;3.88;;;23.30;56.40;;;;;;4928568;29;20474;-69
2021/09/05 11:17:11;;;;;;;6.07;3.40;;;23.20;55.80;;;;;;4932704;29;20528;-72
2021/09/05 11:19:45;;;;;;;5.18;3.60;;;23.20;56.10;;;;;;4926961;29;20479;-70
2021/09/05 11:22:13;;;;;;;5.55;3.75;;;23.20;55.90;;;;;;4928686;29;20498;-68
2021/09/05 11:24:40;;;;;;;5.40;3.60;;;23.20;56.10;;;;;;4928768;29;20491;-71
2021/09/05 11:27:07;;;;;;;9.48;3.85;;;23.20;56.20;;;;;;4928975;29;20498;-72
2021/09/05 11:29:35;;;;;;;7.43;3.67;;;23.20;56.20;;;;;;4928040;29;20400;-68
2021/09/05 11:32:05;;;;;;;6.45;3.53;;;23.20;56.20;;;;;;4918067;29;20430;-71
2021/09/05 11:34:32;;;;;;;8.80;4.00;;;23.20;56.20;;;;;;4942980;29;20447;-67
2021/09/05 11:36:58;;;;;;;5.30;3.60;;;23.20;56.00;;;;;;4928528;29;20900;-69
2021/09/05 11:39:24;;;;;;;7.47;3.58;;;23.20;56.00;;;;;;4927582;29;20483;-72
2021/09/05 11:41:53;;;;;;;7.00;3.30;;;23.20;55.90;;;;;;4928605;29;21412;-71
2021/09/05 11:44:36;;;;;;;5.70;3.53;;;23.20;56.00;;;;;;4928498;29;20399;-69
2021/09/05 11:47:19;;;;;;;4.87;3.40;;;23.20;56.60;;;;;;4928309;29;20399;-72
2021/09/05 11:49:51;;;;;;;4.20;3.35;;;23.20;55.90;;;;;;4928059;29;20808;-72
2021/09/05 11:52:19;;;;;;;4.63;3.70;;;23.20;56.00;;;;;;4928267;29;20431;-68
2021/09/05 11:55:08;;;;;;;4.95;3.30;;;23.20;56.00;;;;;;4942849;29;20406;-72
2021/09/05 11:57:49;;;;;;;4.78;3.35;;;23.20;55.90;;;;;;4932701;29;20964;-72
2021/09/05 12:00:25;;;;;;;5.35;3.50;;;23.30;56.00;;;;;;4926660;29;20463;-71
2021/09/05 12:02:51;;;;;;;4.78;3.70;;;23.30;56.00;;;;;;4926809;29;20440;-69
2021/09/05 12:05:17;;;;;;;4.37;3.40;;;23.30;56.00;;;;;;4942668;29;20861;-70
2021/09/05 12:07:43;;;;;;;4.05;3.58;;;23.30;56.10;;;;;;4927418;29;20896;-71
2021/09/05 12:10:15;;;;;;;5.63;3.40;;;23.30;56.10;;;;;;4927731;29;20408;-70
2021/09/05 12:12:42;;;;;;;4.57;3.60;;;23.30;56.10;;;;;;4927566;29;20434;-70
2021/09/05 12:15:19;;;;;;;4.53;3.70;;;23.30;56.10;;;;;;4927797;29;20892;-69
2021/09/05 12:17:48;;;;;;;4.30;3.40;;;23.30;56.10;;;;;;4927226;29;21337;-71
2021/09/05 12:20:16;;;;;;;5.43;3.40;;;23.30;56.10;;;;;;4926643;29;20495;-71
2021/09/05 12:22:47;;;;;;;3.97;3.47;;;23.30;56.00;;;;;;4927732;29;20487;-71
2021/09/05 12:25:14;;;;;;;4.28;3.70;;;23.30;56.00;;;;;;4927311;29;20400;-71
2021/09/05 12:27:51;;;;;;;3.60;3.10;;;23.30;56.00;;;;;;4926883;29;20414;-72
2021/09/05 12:30:55;;;;;;;4.68;3.50;;;23.30;56.00;;;;;;4916883;29;20407;-71
2021/09/05 12:33:32;;;;;;;3.88;3.45;;;23.30;56.00;;;;;;4927423;29;20490;-71
2021/09/05 12:36:15;;;;;;;5.10;3.70;;;23.30;56.00;;;;;;4927370;29;20454;-70
2021/09/05 12:38:52;;;;;;;4.55;3.60;;;23.30;55.90;;;;;;4927446;29;20919;-72
2021/09/05 12:41:18;;;;;;;3.78;3.30;;;23.30;56.10;;;;;;4927363;29;20411;-71
2021/09/05 12:43:48;;;;;;;4.20;3.63;;;23.30;55.80;;;;;;4926761;29;20761;-73
2021/09/05 12:46:15;;;;;;;4.35;3.38;;;23.30;55.80;;;;;;4927099;29;20778;-66
2021/09/05 12:48:43;;;;;;;4.85;3.70;;;23.30;55.60;;;;;;4927312;29;20395;-72
2021/09/05 12:51:12;;;;;;;4.55;3.60;;;23.30;55.60;;;;;;4927299;29;20409;-70
2021/09/05 12:53:53;;;;;;;4.10;3.40;;;23.40;55.60;;;;;;4926580;29;20435;-69
2021/09/05 12:56:19;;;;;;;4.32;3.55;;;23.30;55.50;;;;;;4912435;29;20399;-72